FW1664 Weather Reports


Display with metric or nautical units.
time (UTC)temp
F
wind
direction
speed
MPH
gust
MPH
rain 1hr
in
rain 24hr
in
rain mn
in
humidity
%
barometer
mb
20210303024544 36 226 8.0 14.0 0.00 0.00 0.00 71 1009.3
20210303023327 36 232 7.0 10.0 0.00 0.00 0.00 70 1009.2
20210303021542 36 214 5.0 7.0 0.00 0.00 0.00 70 1009.2
20210303020057 36 192 5.0 7.0 0.00 0.00 0.00 70 1009.0
20210303014619 37 227 7.0 10.0 0.00 0.00 0.00 68 1008.9
20210303013329 38 230 5.0 8.0 0.00 0.00 0.00 67 1008.7
20210303011543 38 228 6.0 8.0 0.00 0.00 0.00 65 1008.6
20210303010042 41 217 6.0 11.0 0.00 0.00 0.00 62 1008.5
20210303004541 43 223 6.0 9.0 0.00 0.00 0.00 58 1008.4
20210303003456 44 223 7.0 14.0 0.00 0.00 0.00 55 1008.4
20210303001528 47 238 12.0 19.0 0.00 0.00 0.00 50 1008.4
20210303000058 48 223 16.0 23.0 0.00 0.00 0.00 47 1008.2
20210302234542 49 218 19.0 23.0 0.00 0.00 0.00 45 1008.1
20210302233221 49 225 17.0 21.0 0.00 0.00 0.00 45 1008.0
20210302231523 50 214 14.0 19.0 0.00 0.00 0.00 45 1008.2
20210302230058 50 236 11.0 18.0 0.00 0.00 0.00 47 1008.2
20210302224543 50 226 16.0 21.0 0.00 0.00 0.00 46 1008.3
20210302223054 50 225 13.0 22.0 0.00 0.00 0.00 45 1008.4
20210302221552 49 217 12.0 20.0 0.00 0.00 0.00 47 1008.5
20210302220032 49 240 17.0 22.0 0.00 0.00 0.00 45 1008.6
20210302214536 50 235 19.0 25.0 0.00 0.00 0.00 43 1008.6
20210302213101 50 209 20.0 28.0 0.00 0.00 0.00 43 1008.8
20210302211531 50 223 20.0 26.0 0.00 0.00 0.00 43 1008.9
20210302210028 51 235 19.0 29.0 0.00 0.00 0.00 44 1009.0
20210302204634 51 211 21.0 29.0 0.00 0.00 0.00 44 1009.1
20210302203203 50 194 19.0 25.0 0.00 0.00 0.00 45 1009.0
20210302201612 50 203 17.0 24.0 0.00 0.00 0.00 46 1009.3
20210302200158 49 206 17.0 26.0 0.00 0.00 0.00 46 1009.6
20210302194707 49 200 19.0 24.0 0.00 0.00 0.00 48 1010.1
20210302193136 49 217 17.0 22.0 0.00 0.00 0.00 48 1010.5
20210302191627 48 211 18.0 23.0 0.00 0.00 0.00 50 1010.6
20210302190151 48 205 19.0 28.0 0.00 0.00 0.00 48 1010.5
20210302184611 48 215 19.0 25.0 0.00 0.00 0.00 47 1010.8
20210302183140 47 193 18.0 25.0 0.00 0.00 0.00 49 1011.0
20210302181613 47 230 17.0 25.0 0.00 0.00 0.00 49 1011.3
20210302180057 46 213 18.0 24.0 0.00 0.00 0.00 48 1011.4
20210302174533 46 216 15.0 21.0 0.00 0.00 0.00 50 1011.6
20210302173408 45 204 14.0 18.0 0.00 0.00 0.00 53 1011.6
20210302171604 45 206 15.0 21.0 0.00 0.00 0.00 51 1011.7
20210302170131 44 198 14.0 20.0 0.00 0.00 0.00 53 1011.6
20210302164651 43 196 14.0 20.0 0.00 0.00 0.00 54 1011.7
20210302163453 42 218 14.0 21.0 0.00 0.00 0.00 57 1011.8
20210302161559 41 221 15.0 21.0 0.00 0.00 0.00 59 1011.8
20210302160110 40 226 15.0 21.0 0.00 0.00 0.00 61 1011.7
20210302154555 39 221 13.0 17.0 0.00 0.00 0.00 63 1011.8
20210302153441 38 220 12.0 16.0 0.00 0.00 0.00 64 1011.8
20210302151608 37 213 9.0 12.0 0.00 0.00 0.00 65 1011.7
20210302150231 36 225 7.0 10.0 0.00 0.00 0.00 66 1011.7
20210302144525 33 199 7.0 11.0 0.00 0.00 0.00 71 1011.7
20210302143203 33 216 5.0 9.0 0.00 0.00 0.00 71 1011.7
20210302141528 34 210 10.0 16.0 0.00 0.00 0.00 68 1011.6
20210302140033 35 210 11.0 17.0 0.00 0.00 0.00 67 1011.7
20210302134522 35 221 12.0 22.0 0.00 0.00 0.00 67 1011.7
20210302133153 37 215 17.0 25.0 0.00 0.00 0.00 63 1011.4
20210302131524 37 232 16.0 22.0 0.00 0.00 0.00 64 1011.5
20210302130041 39 238 18.0 26.0 0.00 0.00 0.00 61 1011.4
20210302124530 37 242 17.0 20.0 0.00 0.00 0.00 65 1011.5
20210302121852 37 232 11.0 19.0 0.00 0.00 0.00 66 1012.1
20210302120119 38 209 12.0 16.0 0.00 0.00 0.00 65 1011.7
20210302114654 38 217 10.0 18.0 0.00 0.00 0.00 65 1011.9
20210302113537 38 219 13.0 18.0 0.00 0.00 0.00 64 1011.8
20210302111709 38 219 14.0 20.0 0.00 0.00 0.00 65 1011.6
20210302110147 38 230 15.0 22.0 0.00 0.00 0.00 66 1011.5
20210302104554 38 222 12.0 17.0 0.00 0.00 0.00 66 1011.9
20210302103622 39 238 11.0 16.0 0.00 0.00 0.00 65 1011.9
20210302101710 39 229 11.0 15.0 0.00 0.00 0.00 63 1011.9
20210302100053 39 249 11.0 17.0 0.00 0.00 0.00 64 1012.0
20210302094611 40 240 11.0 16.0 0.00 0.00 0.00 63 1011.8
20210302093614 40 243 12.0 16.0 0.00 0.00 0.00 62 1011.9
20210302091627 41 213 12.0 18.0 0.00 0.00 0.00 61 1011.7
20210302090527 41 214 12.0 17.0 0.00 0.00 0.00 60 1011.8
20210302084545 42 218 12.0 19.0 0.00 0.00 0.00 58 1012.0
20210302083041 42 226 15.0 19.0 0.00 0.00 0.00 57 1012.0
20210302080037 44 233 15.0 21.0 0.00 0.00 0.00 55 1011.7
20210302074552 44 236 15.0 22.0 0.00 0.00 0.00 55 1011.8
20210302073441 44 219 15.0 22.0 0.00 0.00 0.00 56 1011.7
20210302071536 44 229 16.0 23.0 0.00 0.00 0.00 56 1011.6
20210302070038 43 240 12.0 16.0 0.00 0.00 0.00 58 1011.7
20210302064557 43 254 8.0 17.0 0.00 0.00 0.00 58 1011.8
20210302061057 42 216 16.0 22.0 0.00 0.00 0.00 58 1011.4
20210302055204 43 225 17.0 23.0 0.00 0.00 0.00 58 1011.7
20210302053412 43 246 12.0 19.0 0.00 0.00 0.00 58 1011.9
20210302051525 42 246 15.0 22.0 0.00 0.00 0.00 59 1012.0
20210302050025 43 248 16.0 21.0 0.00 0.00 0.00 57 1012.0
20210302044553 43 244 18.0 25.0 0.00 0.00 0.00 55 1011.9
20210302043340 45 245 21.0 30.0 0.00 0.00 0.00 53 1011.7
20210302041531 44 265 19.0 29.0 0.00 0.00 0.00 54 1011.9
20210302040021 45 238 21.0 27.0 0.00 0.00 0.00 52 1011.9
20210302034530 45 242 17.0 26.0 0.00 0.00 0.00 52 1012.3
20210302033129 45 234 16.0 22.0 0.00 0.00 0.00 53 1012.3
20210302031540 41 221 12.0 17.0 0.00 0.00 0.00 58 1012.3
20210302030018 42 198 15.0 21.0 0.00 0.00 0.00 59 1012.4